Time;durP1;ratioP1;P1;durP2;ratioP2;P2;SDS_P1;SDS_P2;PMS_P1;PMS_P2;Temp;Humidity;BMP_temperature;BMP_pressure;BME280_temperature;BME280_humidity;BME280_pressure;Samples;Min_cycle;Max_cycle;Signal;HPM_P1;HPM_P2
2021/09/16 00:01:51;;;;;;;8.18;4.82;;;;;;;20.16;82.58;97724.59;4943563;29;20078;-62
2021/09/16 00:04:16;;;;;;;10.05;4.13;;;;;;;20.27;82.70;97724.50;4943698;29;20065;-63
2021/09/16 00:06:41;;;;;;;7.03;4.60;;;;;;;20.14;82.73;97724.72;4943081;29;20049;-60
2021/09/16 00:09:07;;;;;;;9.00;4.82;;;;;;;20.05;83.11;97720.19;4926515;29;20027;-62
2021/09/16 00:11:32;;;;;;;7.80;4.70;;;;;;;20.19;82.34;97709.28;4925510;29;20126;-63
2021/09/16 00:13:58;;;;;;;8.32;4.88;;;;;;;20.11;83.02;97721.53;4943755;29;20015;-61
2021/09/16 00:16:23;;;;;;;6.88;4.07;;;;;;;20.21;82.26;97725.88;4942750;29;20074;-63
2021/09/16 00:18:49;;;;;;;8.05;4.47;;;;;;;20.12;82.80;97710.78;4942521;28;20019;-60
2021/09/16 00:21:14;;;;;;;9.25;4.47;;;;;;;20.23;82.08;97716.00;4943107;29;20130;-63
2021/09/16 00:23:39;;;;;;;8.68;4.60;;;;;;;20.41;81.21;97713.59;4916940;29;20037;-62
2021/09/16 00:26:05;;;;;;;7.93;4.60;;;;;;;20.32;81.09;97713.53;4926127;29;20046;-62
2021/09/16 00:28:30;;;;;;;6.38;4.43;;;;;;;20.38;81.29;97711.22;4942352;29;20138;-63
2021/09/16 00:30:56;;;;;;;9.68;5.20;;;;;;;20.18;81.25;97720.84;4943047;28;20047;-61
2021/09/16 00:33:21;;;;;;;7.63;4.50;;;;;;;19.94;82.17;97725.56;4943343;29;20031;-61
2021/09/16 00:35:46;;;;;;;7.05;4.63;;;;;;;20.24;80.52;97711.56;4941178;29;20035;-61
2021/09/16 00:38:12;;;;;;;9.50;4.68;;;;;;;20.03;81.94;97715.06;4942823;29;20035;-63
2021/09/16 00:40:37;;;;;;;10.32;4.22;;;;;;;20.02;81.24;97716.00;4926753;29;20031;-61
2021/09/16 00:43:03;;;;;;;10.73;4.72;;;;;;;20.09;80.62;97719.00;4942869;29;20023;-64
2021/09/16 00:45:28;;;;;;;7.03;4.30;;;;;;;20.21;80.30;97717.94;4943316;29;20693;-64
2021/09/16 00:47:53;;;;;;;6.93;4.20;;;;;;;20.09;80.57;97711.06;4942098;29;20729;-63
2021/09/16 00:50:22;;;;;;;7.47;4.40;;;;;;;19.98;81.23;97713.78;4942441;28;20027;-62
2021/09/16 00:52:49;;;;;;;10.75;4.60;;;;;;;20.44;79.22;97709.84;4942609;29;20031;-62
2021/09/16 00:55:15;;;;;;;7.13;4.40;;;;;;;20.52;79.00;97711.84;4941350;28;20023;-62
2021/09/16 00:57:47;;;;;;;6.65;4.35;;;;;;;20.72;78.75;97715.44;4943094;29;20031;-62
2021/09/16 01:00:12;;;;;;;;;;;;;;;20.33;79.80;97725.81;4942814;28;20236;-61
2021/09/16 01:02:38;;;;;;;8.02;4.57;;;;;;;20.17;80.82;97713.88;4942547;29;19923;-60
2021/09/16 01:05:05;;;;;;;10.68;4.47;;;;;;;20.19;80.82;97725.16;4942275;29;20085;-61
2021/09/16 01:07:30;;;;;;;9.15;4.65;;;;;;;20.19;81.04;97727.00;4941390;29;20122;-63
2021/09/16 01:09:59;;;;;;;8.80;4.63;;;;;;;20.39;79.77;97738.53;4942143;28;20181;-60
2021/09/16 01:12:25;;;;;;;7.78;4.50;;;;;;;20.11;80.86;97730.28;4941810;29;20508;-63
2021/09/16 01:14:51;;;;;;;8.13;4.72;;;;;;;20.31;79.86;97730.38;4942725;29;20037;-64
2021/09/16 01:17:16;;;;;;;7.40;4.55;;;;;;;20.13;80.59;97733.66;4939562;28;20043;-62
2021/09/16 01:19:41;;;;;;;8.00;4.40;;;;;;;20.23;80.18;97728.41;4924221;29;20035;-63
2021/09/16 01:22:15;;;;;;;7.18;4.20;;;;;;;20.26;79.96;97732.63;4941704;29;20802;-63
2021/09/16 01:24:40;;;;;;;10.00;4.65;;;;;;;20.28;80.03;97730.66;4942577;29;20031;-63
2021/09/16 01:27:05;;;;;;;11.07;5.07;;;;;;;20.16;80.46;97736.03;4922723;29;20109;-62
2021/09/16 01:29:31;;;;;;;10.25;5.20;;;;;;;20.30;80.36;97728.72;4941812;28;20031;-61
2021/09/16 01:32:02;;;;;;;9.60;5.07;;;;;;;20.47;79.58;97724.63;4940117;29;20102;-62
2021/09/16 01:34:28;;;;;;;9.25;4.57;;;;;;;20.28;80.35;97728.03;4941929;29;20027;-60
2021/09/16 01:36:53;;;;;;;10.45;4.68;;;;;;;20.16;80.49;97736.03;4941697;29;20222;-64
2021/09/16 01:39:18;;;;;;;8.38;4.93;;;;;;;20.02;81.15;97723.13;4941467;28;20026;-60
2021/09/16 01:41:44;;;;;;;7.32;4.38;;;;;;;20.05;81.42;97722.84;4941849;29;20063;-61
2021/09/16 01:44:09;;;;;;;11.18;4.78;;;;;;;20.26;80.55;97722.03;4941948;29;20033;-63
2021/09/16 01:46:35;;;;;;;7.38;4.80;;;;;;;20.08;81.17;97727.88;4941624;29;20039;-63
2021/09/16 01:49:03;;;;;;;9.00;4.85;;;;;;;20.15;81.10;97725.56;4940976;28;20081;-61
2021/09/16 01:51:30;;;;;;;6.63;4.20;;;;;;;20.04;81.49;97731.78;4941301;29;20063;-63
2021/09/16 01:53:55;;;;;;;7.82;4.50;;;;;;;20.18;80.79;97731.44;4939350;28;20552;-59
2021/09/16 01:56:21;;;;;;;7.10;4.45;;;;;;;20.17;81.14;97724.47;4941540;29;20051;-62
2021/09/16 01:58:46;;;;;;;7.40;5.00;;;;;;;20.14;81.06;97723.88;4941265;28;20039;-63
2021/09/16 02:01:12;;;;;;;10.30;4.72;;;;;;;20.13;81.39;97722.22;4941227;29;20698;-60
2021/09/16 02:03:37;;;;;;;8.15;4.57;;;;;;;20.07;81.23;97723.59;4941656;29;20098;-61
2021/09/16 02:06:03;;;;;;;7.22;4.40;;;;;;;19.88;82.09;97713.69;4940207;28;20039;-62
2021/09/16 02:08:28;;;;;;;6.70;4.38;;;;;;;20.40;80.14;97719.00;4939825;29;20210;-62
2021/09/16 02:10:54;;;;;;;8.23;4.28;;;;;;;20.45;80.04;97711.50;4940694;28;20122;-63
2021/09/16 02:13:19;;;;;;;8.00;4.30;;;;;;;20.25;81.04;97717.69;4938731;29;20027;-61
2021/09/16 02:15:45;;;;;;;7.35;4.30;;;;;;;20.16;81.03;97712.22;4940942;29;20042;-63
2021/09/16 02:18:10;;;;;;;8.05;4.75;;;;;;;20.14;81.17;97713.28;4941156;29;20030;-62
2021/09/16 02:20:35;;;;;;;8.27;4.47;;;;;;;20.07;81.73;97709.47;4916172;29;20050;-60
2021/09/16 02:23:01;;;;;;;7.07;4.28;;;;;;;20.27;80.53;97713.09;4940658;29;20513;-62
2021/09/16 02:25:26;;;;;;;6.93;4.75;;;;;;;19.96;81.87;97720.97;4924651;29;20110;-63
2021/09/16 02:27:52;;;;;;;6.40;4.40;;;;;;;19.87;82.62;97721.75;4941333;29;20024;-62
2021/09/16 02:30:17;;;;;;;6.78;4.30;;;;;;;20.13;81.66;97720.41;4940754;28;20067;-61
2021/09/16 02:32:43;;;;;;;8.30;4.40;;;;;;;19.72;83.13;97714.09;4941188;29;21041;-61
2021/09/16 02:35:10;;;;;;;6.97;3.90;;;;;;;20.30;81.11;97718.13;4940726;29;20038;-63
2021/09/16 02:37:35;;;;;;;7.63;4.32;;;;;;;19.93;82.65;97710.66;4941689;29;20031;-61
2021/09/16 02:40:00;;;;;;;9.38;4.60;;;;;;;19.72;83.76;97703.53;4940391;28;20019;-63
2021/09/16 02:42:26;;;;;;;8.07;4.57;;;;;;;20.01;82.90;97713.50;4940595;28;20036;-64
2021/09/16 02:44:51;;;;;;;8.10;4.82;;;;;;;19.73;84.07;97713.16;4941207;29;20019;-63
2021/09/16 02:47:16;;;;;;;6.40;4.32;;;;;;;20.11;82.51;97714.41;4924187;29;20058;-64
2021/09/16 02:49:42;;;;;;;7.07;4.60;;;;;;;19.70;84.27;97702.78;4939042;28;20035;-63
2021/09/16 02:52:07;;;;;;;10.27;4.93;;;;;;;19.93;83.16;97713.31;4939992;29;20043;-63
2021/09/16 02:54:33;;;;;;;8.52;5.00;;;;;;;20.10;82.42;97712.72;4940974;29;20023;-61
2021/09/16 02:56:58;;;;;;;7.85;4.60;;;;;;;19.98;83.17;97711.13;4940621;29;20188;-60
2021/09/16 02:59:24;;;;;;;8.93;4.72;;;;;;;19.87;83.37;97706.72;4939737;28;20097;-63
2021/09/16 03:01:49;;;;;;;8.18;4.68;;;;;;;20.03;83.34;97711.53;4940615;29;20050;-63
2021/09/16 03:04:14;;;;;;;6.70;4.22;;;;;;;19.94;83.58;97714.97;4940520;29;20118;-61
2021/09/16 03:06:40;;;;;;;9.13;4.68;;;;;;;19.84;84.26;97721.03;4938581;29;20050;-60
2021/09/16 03:09:05;;;;;;;8.32;4.60;;;;;;;19.74;84.62;97719.28;4939963;28;21093;-62
2021/09/16 03:11:30;;;;;;;8.02;4.82;;;;;;;19.82;84.17;97722.97;4939103;29;20128;-64
2021/09/16 03:13:56;;;;;;;8.00;4.88;;;;;;;19.95;83.25;97719.31;4940941;29;20592;-61
2021/09/16 03:16:21;;;;;;;9.63;5.03;;;;;;;19.94;83.54;97717.63;4940731;29;20066;-61
2021/09/16 03:18:46;;;;;;;10.52;4.90;;;;;;;19.92;83.73;97715.09;4926149;28;20660;-63
2021/09/16 03:21:12;;;;;;;7.97;5.00;;;;;;;19.97;83.25;97718.19;4943536;29;20548;-62
2021/09/16 03:23:37;;;;;;;8.45;4.90;;;;;;;19.86;84.46;97714.78;4944599;29;20034;-62
2021/09/16 03:26:03;;;;;;;9.40;4.88;;;;;;;19.74;84.75;97700.75;4943978;29;20038;-62
2021/09/16 03:28:28;;;;;;;12.43;4.75;;;;;;;19.70;85.24;97699.31;4943649;29;21037;-64
2021/09/16 03:30:54;;;;;;;12.82;4.93;;;;;;;19.75;84.68;97703.28;4943635;28;20035;-64
2021/09/16 03:33:19;;;;;;;11.27;4.78;;;;;;;19.76;84.48;97693.56;4944116;29;20504;-61
2021/09/16 03:35:45;;;;;;;8.60;4.85;;;;;;;20.33;82.37;97699.34;4943062;29;20031;-61
2021/09/16 03:38:10;;;;;;;10.25;4.88;;;;;;;20.11;82.61;97702.97;4928494;29;20700;-63
2021/09/16 03:40:35;;;;;;;9.45;5.03;;;;;;;19.80;84.30;97702.91;4942982;28;20072;-61
2021/09/16 03:43:01;;;;;;;8.40;4.50;;;;;;;19.81;84.86;97701.94;4943945;29;20513;-63
2021/09/16 03:45:26;;;;;;;10.98;5.07;;;;;;;19.72;84.92;97706.16;4943698;29;20133;-63
2021/09/16 03:47:51;;;;;;;7.13;4.30;;;;;;;20.08;83.41;97692.66;4944059;29;20027;-63
2021/09/16 03:50:17;;;;;;;9.50;4.55;;;;;;;19.81;85.29;97697.50;4942780;28;20527;-62
2021/09/16 03:52:43;;;;;;;7.38;4.63;;;;;;;20.12;83.60;97694.06;4944066;29;20542;-61
2021/09/16 03:55:08;;;;;;;7.43;4.75;;;;;;;19.87;84.44;97687.34;4943512;29;20262;-64
2021/09/16 03:57:34;;;;;;;10.63;4.85;;;;;;;19.82;84.49;97699.16;4925658;29;20055;-61
2021/09/16 03:59:59;;;;;;;7.03;4.40;;;;;;;19.78;84.75;97697.75;4943774;28;20054;-61
2021/09/16 04:02:25;;;;;;;9.15;4.95;;;;;;;19.72;85.22;97700.88;4942885;29;20575;-63
2021/09/16 04:04:51;;;;;;;6.18;4.50;;;;;;;19.50;86.64;97698.31;4943380;29;20629;-63
2021/09/16 04:07:16;;;;;;;9.63;4.97;;;;;;;19.74;85.56;97693.69;4943501;29;20421;-64
2021/09/16 04:09:41;;;;;;;7.85;4.47;;;;;;;19.97;84.29;97696.19;4943031;28;20031;-61
2021/09/16 04:12:07;;;;;;;8.02;4.88;;;;;;;19.86;84.58;97690.97;4943275;29;20039;-62
2021/09/16 04:14:33;;;;;;;6.25;4.30;;;;;;;19.78;85.33;97697.75;4943723;29;20026;-63
2021/09/16 04:16:58;;;;;;;8.60;4.53;;;;;;;19.79;85.10;97690.63;4943153;29;20043;-60
2021/09/16 04:19:23;;;;;;;7.25;3.88;;;;;;;19.84;85.18;97691.09;4943477;28;20460;-63
2021/09/16 04:21:49;;;;;;;8.27;4.35;;;;;;;19.67;85.47;97692.47;4943039;29;20051;-63
2021/09/16 04:24:16;;;;;;;10.80;4.20;;;;;;;19.64;85.80;97698.00;4942814;29;20035;-62
2021/09/16 04:26:43;;;;;;;7.72;4.50;;;;;;;19.50;86.47;97687.72;4942912;29;20054;-63
2021/09/16 04:29:08;;;;;;;8.07;4.50;;;;;;;19.53;86.38;97692.78;4941818;28;20073;-64
2021/09/16 04:31:34;;;;;;;6.57;4.53;;;;;;;19.77;85.62;97696.03;4923454;29;20085;-62
2021/09/16 04:33:59;;;;;;;8.88;4.32;;;;;;;19.78;85.17;97692.44;4942816;29;20062;-61
2021/09/16 04:36:24;;;;;;;7.85;4.57;;;;;;;19.66;85.99;97693.44;4925034;29;20063;-64
2021/09/16 04:38:49;;;;;;;9.60;4.30;;;;;;;19.59;86.21;97692.25;4942447;28;20659;-64
2021/09/16 04:41:15;;;;;;;8.68;4.55;;;;;;;19.64;86.33;97690.91;4942959;29;20039;-63
2021/09/16 04:43:41;;;;;;;5.60;4.32;;;;;;;19.55;86.56;97690.84;4943182;29;20030;-63
2021/09/16 04:46:06;;;;;;;8.82;4.15;;;;;;;19.87;84.70;97695.28;4942822;28;20053;-61
2021/09/16 04:48:31;;;;;;;7.05;4.30;;;;;;;19.72;85.73;97695.59;4942899;29;20073;-60
2021/09/16 04:50:57;;;;;;;7.13;4.15;;;;;;;19.94;85.01;97694.66;4942450;28;20097;-63
2021/09/16 04:53:22;;;;;;;7.82;4.47;;;;;;;19.50;86.39;97696.53;4942718;29;20023;-62
2021/09/16 04:55:47;;;;;;;8.25;4.50;;;;;;;19.64;86.24;97698.00;4942083;29;20039;-62
2021/09/16 04:58:13;;;;;;;8.15;4.88;;;;;;;19.45;87.35;97707.47;4942442;29;20496;-64
2021/09/16 05:00:38;;;;;;;6.55;4.30;;;;;;;19.41;88.38;97706.03;4942119;28;20031;-61
2021/09/16 05:03:03;;;;;;;8.40;4.15;;;;;;;19.81;86.09;97708.06;4938536;28;20066;-61
2021/09/16 05:05:29;;;;;;;8.73;4.35;;;;;;;19.58;87.09;97703.81;4924413;29;20126;-63
2021/09/16 05:07:54;;;;;;;6.82;4.75;;;;;;;19.61;87.08;97700.91;4945951;29;20027;-62
2021/09/16 05:10:20;;;;;;;8.75;4.35;;;;;;;19.74;86.54;97706.91;4943328;28;20472;-61
2021/09/16 05:12:45;;;;;;;9.32;4.43;;;;;;;19.74;86.67;97712.19;4929366;29;20031;-61
2021/09/16 05:15:11;;;;;;;8.05;4.68;;;;;;;19.39;88.05;97713.28;4943400;29;20669;-63
2021/09/16 05:17:36;;;;;;;7.93;4.28;;;;;;;19.61;87.26;97716.78;4944378;29;20035;-64
2021/09/16 05:20:02;;;;;;;8.02;4.38;;;;;;;19.80;86.51;97714.31;4944596;28;20038;-63
2021/09/16 05:22:27;;;;;;;7.38;4.50;;;;;;;19.50;87.22;97708.88;4944773;29;20554;-63
2021/09/16 05:24:53;;;;;;;7.05;4.90;;;;;;;19.39;88.62;97718.56;4945192;29;20027;-62
2021/09/16 05:27:19;;;;;;;8.90;4.45;;;;;;;19.51;87.85;97721.16;4944731;29;20281;-64
2021/09/16 05:29:45;;;;;;;7.28;4.45;;;;;;;19.26;89.41;97723.13;4944134;28;20027;-64
2021/09/16 05:32:11;;;;;;;6.13;3.97;;;;;;;19.57;88.33;97725.94;4944251;29;20078;-63
2021/09/16 05:34:37;;;;;;;6.95;4.43;;;;;;;19.32;89.00;97725.31;4944193;29;20031;-61
2021/09/16 05:37:02;;;;;;;7.22;4.03;;;;;;;19.63;88.09;97722.81;4943157;29;20050;-63
2021/09/16 05:39:28;;;;;;;7.70;4.28;;;;;;;19.52;87.75;97726.31;4944178;28;20531;-61
2021/09/16 05:41:53;;;;;;;8.18;4.38;;;;;;;19.25;89.02;97716.19;4943554;28;20050;-63
2021/09/16 05:44:18;;;;;;;7.18;4.30;;;;;;;19.47;87.94;97727.69;4928402;29;20042;-61
2021/09/16 05:46:45;;;;;;;5.45;4.07;;;;;;;19.82;86.74;97725.63;4944205;29;20864;-64
2021/09/16 05:49:10;;;;;;;8.05;4.18;;;;;;;19.38;88.51;97727.44;4927268;29;20038;-62
2021/09/16 05:51:36;;;;;;;6.32;4.05;;;;;;;19.67;88.15;97732.16;4944209;29;20031;-60
2021/09/16 05:54:01;;;;;;;7.90;4.10;;;;;;;19.59;87.94;97731.94;4944429;29;20023;-63
2021/09/16 05:56:27;;;;;;;6.47;4.03;;;;;;;19.82;86.98;97730.91;4943939;29;20039;-60
2021/09/16 05:58:52;;;;;;;7.18;4.43;;;;;;;19.62;87.39;97732.53;4943661;28;20027;-62
2021/09/16 06:01:17;;;;;;;8.02;4.28;;;;;;;19.63;87.39;97736.03;4927788;29;20053;-60
2021/09/16 06:03:43;;;;;;;6.05;4.25;;;;;;;19.82;86.26;97730.91;4944128;29;20647;-62
2021/09/16 06:06:08;;;;;;;6.93;4.40;;;;;;;19.90;86.36;97734.72;4943943;29;20141;-65
2021/09/16 06:08:33;;;;;;;9.77;4.00;;;;;;;19.47;88.88;97736.44;4944440;29;20027;-65
2021/09/16 06:10:59;;;;;;;6.47;4.00;;;;;;;19.51;88.25;97737.03;4942718;28;20043;-63
2021/09/16 06:13:24;;;;;;;9.80;4.22;;;;;;;19.79;87.38;97736.44;4944136;29;20039;-66
2021/09/16 06:15:50;;;;;;;6.45;3.90;;;;;;;19.88;87.38;97734.03;4943631;29;20035;-62
2021/09/16 06:18:15;;;;;;;5.03;3.63;;;;;;;20.20;85.31;97734.81;4943986;29;20404;-63
2021/09/16 06:20:40;;;;;;;7.65;3.90;;;;;;;19.81;86.66;97734.53;4942353;28;20040;-65
2021/09/16 06:23:06;;;;;;;6.95;4.00;;;;;;;19.84;87.30;97736.91;4944099;29;20473;-64
2021/09/16 06:25:31;;;;;;;9.60;4.25;;;;;;;19.64;87.84;97732.41;4927334;29;20047;-65
2021/09/16 06:27:57;;;;;;;7.65;4.05;;;;;;;19.71;87.39;97736.22;4942826;29;20441;-64
2021/09/16 06:30:23;;;;;;;6.97;3.97;;;;;;;19.78;87.00;97740.06;4942642;28;20101;-62
2021/09/16 06:32:49;;;;;;;5.70;4.13;;;;;;;19.70;87.88;97737.19;4943302;29;20043;-63
2021/09/16 06:35:14;;;;;;;5.47;3.75;;;;;;;20.03;86.41;97744.19;4942753;29;20023;-63
2021/09/16 06:37:40;;;;;;;7.65;4.00;;;;;;;19.65;87.84;97739.38;4943859;29;20019;-64
2021/09/16 06:40:06;;;;;;;4.80;3.70;;;;;;;19.90;86.92;97745.31;4943583;28;20465;-61
2021/09/16 06:42:32;;;;;;;5.75;3.97;;;;;;;19.96;86.32;97752.72;4945173;29;20106;-64
2021/09/16 06:44:57;;;;;;;7.25;3.78;;;;;;;20.17;85.00;97750.94;4944443;29;20126;-61
2021/09/16 06:47:23;;;;;;;8.27;4.13;;;;;;;20.00;86.06;97748.88;4944915;29;20042;-63
2021/09/16 06:49:48;;;;;;;9.07;4.10;;;;;;;19.88;86.82;97749.91;4944531;28;20069;-63
2021/09/16 06:52:16;;;;;;;7.40;3.50;;;;;;;19.81;87.19;97750.41;4941388;29;20039;-61
2021/09/16 06:54:42;;;;;;;5.90;3.72;;;;;;;20.01;86.20;97756.66;4925267;29;20023;-64
2021/09/16 06:57:07;;;;;;;9.38;3.92;;;;;;;19.96;87.27;97752.72;4942615;29;20500;-61
2021/09/16 06:59:33;;;;;;;7.43;3.85;;;;;;;20.06;86.15;97748.38;4944688;28;20078;-64
2021/09/16 07:01:58;;;;;;;5.90;3.55;;;;;;;20.13;86.04;97757.47;4944971;29;20042;-64
2021/09/16 07:04:23;;;;;;;7.65;3.97;;;;;;;20.09;86.41;97750.75;4944876;29;20034;-61
2021/09/16 07:06:49;;;;;;;6.40;3.67;;;;;;;19.83;86.78;97753.78;4927555;29;20043;-61
2021/09/16 07:09:14;;;;;;;6.45;3.47;;;;;;;20.19;86.19;97756.94;4943404;28;20628;-61
2021/09/16 07:11:39;;;;;;;7.63;3.50;;;;;;;20.03;86.03;97753.91;4944122;29;20043;-64
2021/09/16 07:14:05;;;;;;;5.70;3.42;;;;;;;20.18;84.68;97762.38;4944030;29;20020;-63
2021/09/16 07:16:30;;;;;;;5.85;3.38;;;;;;;20.71;82.10;97758.78;4943077;29;20047;-61
2021/09/16 07:18:56;;;;;;;6.32;3.40;;;;;;;20.15;84.88;97758.19;4933266;28;20069;-64
2021/09/16 07:21:21;;;;;;;5.93;3.40;;;;;;;20.27;85.18;97760.75;4944685;29;20126;-64
2021/09/16 07:23:46;;;;;;;4.95;3.05;;;;;;;20.75;82.67;97757.56;4945077;29;20142;-61
2021/09/16 07:26:12;;;;;;;6.88;3.50;;;;;;;20.31;84.47;97756.88;4944617;29;20038;-62
2021/09/16 07:28:38;;;;;;;5.15;3.47;;;;;;;20.46;83.69;97752.94;4944081;29;20070;-62
2021/09/16 07:31:06;;;;;;;5.22;3.22;;;;;;;20.42;84.21;97757.66;4942907;29;20031;-64
2021/09/16 07:33:32;;;;;;;5.00;2.97;;;;;;;20.71;82.35;97764.09;4944624;29;20161;-63
2021/09/16 07:35:59;;;;;;;6.95;3.45;;;;;;;20.24;85.48;97764.53;4943916;28;20126;-64
2021/09/16 07:38:24;;;;;;;6.53;3.15;;;;;;;20.16;87.22;97770.47;4944511;29;20023;-61
2021/09/16 07:40:49;;;;;;;7.70;3.35;;;;;;;20.08;88.85;97767.59;4941075;28;20032;-60
2021/09/16 07:43:15;;;;;;;6.75;3.45;;;;;;;20.26;87.90;97765.22;4942715;29;20081;-61
2021/09/16 07:45:40;;;;;;;6.40;3.92;;;;;;;20.26;88.50;97764.41;4942666;28;20091;-62
2021/09/16 07:48:05;;;;;;;11.20;3.80;;;;;;;19.97;92.48;97775.59;4943345;29;20477;-59
2021/09/16 07:50:31;;;;;;;7.95;3.60;;;;;;;20.08;92.17;97772.06;4942017;28;20460;-63
2021/09/16 07:52:57;;;;;;;6.63;3.85;;;;;;;20.23;91.47;97770.75;4943268;29;20027;-61
2021/09/16 07:55:22;;;;;;;6.85;4.15;;;;;;;20.03;93.13;97780.38;4942540;29;20813;-62
2021/09/16 07:57:47;;;;;;;8.15;4.60;;;;;;;20.14;93.43;97782.13;4942739;29;20579;-61
2021/09/16 08:00:13;;;;;;;10.27;4.47;;;;;;;19.81;94.79;97787.47;4924311;29;20481;-62
2021/09/16 08:02:46;;;;;;;7.07;4.53;;;;;;;20.05;94.81;97783.72;4942915;29;20035;-63
2021/09/16 08:05:13;;;;;;;8.68;4.40;;;;;;;19.88;95.61;97781.66;4945693;28;20151;-62
2021/09/16 08:07:38;;;;;;;7.13;4.35;;;;;;;19.91;94.67;97781.41;4945695;29;20032;-63
2021/09/16 08:10:04;;;;;;;6.32;4.15;;;;;;;19.93;94.84;97787.41;4941112;28;20038;-62
2021/09/16 08:12:29;;;;;;;6.82;4.60;;;;;;;19.99;94.44;97778.97;4944775;28;20420;-65
2021/09/16 08:14:54;;;;;;;7.93;4.28;;;;;;;20.22;94.45;97785.00;4945636;29;20417;-63
2021/09/16 08:17:20;;;;;;;5.80;3.88;;;;;;;20.31;93.84;97788.66;4945838;29;20110;-63
2021/09/16 08:19:45;;;;;;;6.95;3.97;;;;;;;20.62;92.18;97786.09;4945193;28;20139;-60
2021/09/16 08:22:10;;;;;;;6.63;4.03;;;;;;;20.33;94.43;97794.69;4945491;29;20039;-63
2021/09/16 08:24:36;;;;;;;6.20;3.90;;;;;;;20.08;96.46;97788.78;4946145;29;20066;-60
2021/09/16 08:27:02;;;;;;;7.15;4.45;;;;;;;20.13;96.17;97791.88;4945222;29;20031;-63
2021/09/16 08:29:27;;;;;;;30.77;4.10;;;;;;;20.53;94.55;97799.13;4945830;28;20027;-62
2021/09/16 08:31:52;;;;;;;6.18;4.47;;;;;;;20.23;96.84;97798.09;4945349;29;20183;-60
2021/09/16 08:34:18;;;;;;;7.97;4.93;;;;;;;19.72;100.00;97798.78;4942661;28;20070;-62
2021/09/16 08:36:43;;;;;;;11.75;5.60;;;;;;;19.50;100.00;97801.47;4943382;28;20619;-62
2021/09/16 08:39:09;;;;;;;10.73;5.72;;;;;;;19.41;100.00;97801.25;4945028;28;20039;-62
2021/09/16 08:41:36;;;;;;;9.48;5.43;;;;;;;19.50;100.00;97804.09;4945278;29;20043;-63
2021/09/16 08:44:03;;;;;;;8.90;5.55;;;;;;;19.37;100.00;97810.41;4945437;29;20487;-62
2021/09/16 08:46:29;;;;;;;11.00;5.70;;;;;;;19.26;100.00;97802.47;4944904;29;20578;-63
2021/09/16 08:48:54;;;;;;;13.90;5.50;;;;;;;19.32;100.00;97809.06;4943237;28;20724;-60
2021/09/16 08:51:20;;;;;;;12.00;6.18;;;;;;;18.91;100.00;97819.31;4910371;29;20145;-62
2021/09/16 08:53:47;;;;;;;12.95;6.00;;;;;;;18.79;100.00;97820.25;4941972;28;20702;-62
2021/09/16 08:56:13;;;;;;;8.20;5.25;;;;;;;18.85;100.00;97835.66;4941528;29;20420;-62
2021/09/16 08:58:42;;;;;;;12.98;6.88;;;;;;;18.83;100.00;97832.28;4942136;29;20027;-64
2021/09/16 09:01:07;;;;;;;14.70;7.00;;;;;;;18.63;100.00;97852.28;4941015;28;20038;-61
2021/09/16 09:03:33;;;;;;;10.65;5.90;;;;;;;18.70;100.00;97848.22;4925704;29;20031;-61
2021/09/16 09:05:58;;;;;;;11.68;6.75;;;;;;;18.75;100.00;97831.97;4942075;29;20062;-59
2021/09/16 09:08:26;;;;;;;10.27;6.88;;;;;;;18.90;100.00;97824.72;4941494;28;20517;-63
2021/09/16 09:10:58;;;;;;;10.00;6.28;;;;;;;19.07;100.00;97809.22;4940582;28;20039;-62
2021/09/16 09:13:41;;;;;;;11.15;6.00;;;;;;;19.13;100.00;97817.63;4941796;29;20038;-61
2021/09/16 09:16:11;;;;;;;9.63;5.47;;;;;;;19.53;100.00;97814.44;4940964;28;20136;-62
2021/09/16 09:18:42;;;;;;;11.15;6.45;;;;;;;19.54;100.00;97810.84;4942080;29;20547;-62
2021/09/16 09:21:09;;;;;;;6.87;4.60;;;;;;;19.65;100.00;97810.81;4940686;28;20039;-63
2021/09/16 09:23:44;;;;;;;9.10;5.18;;;;;;;19.72;100.00;97806.72;4940647;28;20031;-66
2021/09/16 09:26:26;;;;;;;7.13;4.82;;;;;;;19.84;100.00;97815.47;4941329;29;20040;-64
2021/09/16 09:28:54;;;;;;;9.20;5.13;;;;;;;19.95;100.00;97809.31;4940197;28;20325;-61
2021/09/16 09:31:22;;;;;;;10.27;5.85;;;;;;;19.64;100.00;97802.03;4941017;29;20444;-67
2021/09/16 09:33:48;;;;;;;14.55;6.20;;;;;;;19.72;100.00;97808.50;4941318;29;20113;-63
2021/09/16 09:36:19;;;;;;;8.48;5.13;;;;;;;19.91;100.00;97803.41;4941139;28;20459;-63
2021/09/16 09:39:01;;;;;;;12.53;6.23;;;;;;;19.93;100.00;97803.31;4939804;28;20023;-65
2021/09/16 09:41:34;;;;;;;10.15;5.13;;;;;;;20.04;100.00;97805.91;4940190;29;20274;-65
2021/09/16 09:44:08;;;;;;;8.43;4.78;;;;;;;20.06;100.00;97806.59;4940990;29;20378;-62
2021/09/16 09:46:53;;;;;;;8.23;5.65;;;;;;;19.94;100.00;97810.25;4940509;29;20039;-61
2021/09/16 09:49:23;;;;;;;14.10;6.97;;;;;;;19.83;100.00;97811.13;4940546;28;20037;-64
2021/09/16 09:51:52;;;;;;;5.10;3.42;;;;;;;19.90;100.00;97812.31;4940490;29;20059;-62
2021/09/16 09:54:22;;;;;;;7.40;4.47;;;;;;;19.60;100.00;97813.00;4939116;29;20043;-61
2021/09/16 09:57:07;;;;;;;8.88;5.10;;;;;;;19.73;100.00;97813.69;4939828;29;20040;-62
2021/09/16 10:00:01;;;;;;;5.68;4.32;;;;;;;19.52;100.00;97816.25;4940848;28;20544;-63
2021/09/16 10:02:45;;;;;;;5.80;4.30;;;;;;;19.68;100.00;97813.19;4939526;29;20638;-61
2021/09/16 10:05:32;;;;;;;9.60;6.07;;;;;;;18.69;100.00;97820.97;4940145;29;20117;-59
2021/09/16 10:08:09;;;;;;;11.00;6.28;;;;;;;18.95;100.00;97819.91;4940401;28;20094;-61
2021/09/16 10:10:41;;;;;;;11.50;6.50;;;;;;;18.80;100.00;97820.13;4940035;28;20063;-62
2021/09/16 10:13:07;;;;;;;;;;;;;;;18.99;100.00;97816.09;4940809;29;20033;-62
2021/09/16 10:15:32;;;;;;;9.40;6.53;;;;;;;18.90;100.00;97830.03;4940080;29;19919;-62
2021/09/16 10:17:58;;;;;;;8.15;4.65;;;;;;;19.40;100.00;97825.19;4939655;29;20023;-62
2021/09/16 10:20:26;;;;;;;12.88;6.28;;;;;;;19.28;99.84;97829.66;4939685;28;20433;-60
2021/09/16 10:22:57;;;;;;;10.40;5.90;;;;;;;19.30;98.86;97835.66;4939933;28;20027;-60
2021/09/16 10:25:25;;;;;;;10.95;7.13;;;;;;;18.88;100.00;97835.41;4939359;29;20035;-59
2021/09/16 10:28:00;;;;;;;9.30;6.22;;;;;;;19.10;100.00;97839.88;4939389;28;20662;-59
2021/09/16 10:30:25;;;;;;;15.35;6.57;;;;;;;18.90;100.00;97841.41;4939633;28;20094;-59
2021/09/16 10:33:15;;;;;;;7.70;5.43;;;;;;;19.85;99.01;97835.69;4924784;29;20405;-61
2021/09/16 10:35:45;;;;;;;10.73;6.32;;;;;;;19.47;99.17;97830.81;4939859;29;20035;-64
2021/09/16 10:38:39;;;;;;;8.93;6.25;;;;;;;19.13;99.11;97828.19;4939860;28;20027;-63
2021/09/16 10:41:26;;;;;;;8.10;5.95;;;;;;;19.02;100.00;97839.59;4940147;28;20404;-65
2021/09/16 10:43:57;;;;;;;7.18;5.53;;;;;;;19.57;100.00;97831.75;4940150;29;20039;-65
2021/09/16 10:46:41;;;;;;;8.20;5.43;;;;;;;19.70;96.80;97821.84;4940031;29;20052;-67
2021/09/16 10:49:22;;;;;;;7.28;5.00;;;;;;;19.88;96.07;97827.50;4939557;29;20105;-62
2021/09/16 10:51:49;;;;;;;7.05;5.22;;;;;;;19.96;96.81;97832.16;4939614;29;20043;-61
2021/09/16 10:54:27;;;;;;;8.05;5.70;;;;;;;20.04;97.32;97840.31;4938248;28;20027;-63
2021/09/16 10:57:13;;;;;;;7.30;5.20;;;;;;;19.88;95.58;97831.94;4939613;29;20145;-59
2021/09/16 10:59:50;;;;;;;10.13;6.28;;;;;;;20.07;95.24;97828.63;4939775;28;20130;-60
2021/09/16 11:02:26;;;;;;;11.77;7.07;;;;;;;19.97;95.75;97828.53;4937984;29;20043;-60
2021/09/16 11:04:54;;;;;;;8.95;5.82;;;;;;;20.30;92.16;97826.72;4939957;29;20074;-62
2021/09/16 11:07:53;;;;;;;9.10;7.28;;;;;;;20.00;96.13;97836.25;4938404;28;20055;-62
2021/09/16 11:10:21;;;;;;;10.35;7.18;;;;;;;20.15;94.53;97829.66;4932268;28;20055;-61
2021/09/16 11:13:28;;;;;;;10.48;7.60;;;;;;;19.95;95.62;97830.47;4940320;29;20016;-60
2021/09/16 11:15:54;;;;;;;9.85;6.95;;;;;;;20.18;91.61;97826.78;4939958;29;20509;-67
2021/09/16 11:18:22;;;;;;;7.80;6.00;;;;;;;20.43;91.81;97824.72;4939274;29;20042;-62
2021/09/16 11:20:53;;;;;;;10.60;8.25;;;;;;;19.80;94.63;97830.75;4938641;28;20145;-63
2021/09/16 11:23:18;;;;;;;10.65;7.95;;;;;;;20.09;93.97;97831.97;4939402;28;20130;-66
2021/09/16 11:25:48;;;;;;;7.80;6.28;;;;;;;20.65;91.85;97830.88;4938896;28;20053;-63
2021/09/16 11:28:16;;;;;;;14.75;8.05;;;;;;;20.74;90.61;97832.75;4939322;28;20023;-63
2021/09/16 11:30:44;;;;;;;12.73;9.05;;;;;;;20.80;88.29;97826.91;4939018;28;20706;-61
2021/09/16 11:33:15;;;;;;;8.93;7.20;;;;;;;20.66;90.71;97829.91;4939013;28;20035;-63